createdAt,value
2022-09-03T00:00:53.721Z,36.70
2022-09-03T00:02:46.285Z,36.65
2022-09-03T00:03:58.507Z,36.62
2022-09-03T00:05:26.458Z,36.60
2022-09-03T00:06:48.428Z,36.56
2022-09-03T00:08:16.712Z,36.65
2022-09-03T00:09:52.982Z,36.84
2022-09-03T00:11:23.821Z,37.21
2022-09-03T00:12:40.500Z,37.30
2022-09-03T00:13:58.092Z,37.37
2022-09-03T00:15:10.448Z,37.39
2022-09-03T00:16:28.075Z,37.34
2022-09-03T00:17:42.461Z,37.33
2022-09-03T00:19:01.849Z,37.40
2022-09-03T00:21:00.901Z,37.37
2022-09-03T00:22:47.255Z,37.33
2022-09-03T00:23:55.498Z,37.25
2022-09-03T00:25:05.103Z,37.22
2022-09-03T00:26:29.236Z,37.39
2022-09-03T00:27:38.272Z,37.67
2022-09-03T00:29:09.899Z,38.02
2022-09-03T00:30:18.022Z,38.32
2022-09-03T00:31:29.435Z,38.45
2022-09-03T00:33:23.593Z,38.62
2022-09-03T00:34:34.242Z,38.48
2022-09-03T00:37:50.385Z,39.00
2022-09-03T00:39:01.396Z,39.30
2022-09-03T00:40:11.355Z,39.25
2022-09-03T00:41:42.269Z,39.27
2022-09-03T00:43:37.045Z,39.42
2022-09-03T00:45:12.267Z,39.39
2022-09-03T00:46:28.234Z,39.41
2022-09-03T00:48:04.160Z,39.28
2022-09-03T00:49:34.985Z,39.20
2022-09-03T00:51:21.720Z,39.18
2022-09-03T00:53:02.285Z,39.18
2022-09-03T00:54:59.838Z,39.18
2022-09-03T00:56:26.877Z,39.39
2022-09-03T00:58:10.840Z,39.61
2022-09-03T01:02:01.041Z,39.88
2022-09-03T01:03:25.977Z,39.85
2022-09-03T01:05:02.263Z,39.62
2022-09-03T01:06:50.133Z,39.52
2022-09-03T01:08:22.974Z,39.44
2022-09-03T01:10:47.913Z,39.28
2022-09-03T01:12:22.210Z,39.14
2022-09-03T01:14:07.581Z,39.09
2022-09-03T01:15:29.012Z,39.08
2022-09-03T01:17:00.609Z,39.23
2022-09-03T01:19:11.020Z,39.04
2022-09-03T01:20:57.486Z,38.96
2022-09-03T01:22:56.060Z,38.98
2022-09-03T01:24:33.015Z,38.85
2022-09-03T01:26:10.296Z,38.73
2022-09-03T01:27:27.742Z,38.57
2022-09-03T01:29:30.903Z,38.52
2022-09-03T01:31:41.486Z,38.40
2022-09-03T01:33:29.575Z,38.25
2022-09-03T01:37:24.045Z,37.83
2022-09-03T01:38:55.979Z,37.57
2022-09-03T01:42:50.134Z,37.20
2022-09-03T01:44:27.114Z,37.06
2022-09-03T01:46:18.716Z,36.93
2022-09-03T01:48:07.483Z,36.67
2022-09-03T01:50:03.321Z,36.47
2022-09-03T01:53:04.662Z,36.14
2022-09-03T01:55:07.124Z,35.96
2022-09-03T01:56:35.299Z,35.77
2022-09-03T01:58:28.058Z,35.50
2022-09-03T02:00:00.956Z,35.25
2022-09-03T02:01:35.730Z,35.01
2022-09-03T02:02:45.775Z,34.79
2022-09-03T02:03:54.247Z,34.60
2022-09-03T02:05:11.383Z,34.49
2022-09-03T02:06:20.317Z,34.33
2022-09-03T02:07:35.256Z,34.20
2022-09-03T02:08:43.648Z,34.07
2022-09-03T02:09:50.851Z,33.97
2022-09-03T02:11:01.223Z,33.88
2022-09-03T02:12:20.243Z,33.79
2022-09-03T02:14:01.540Z,33.68
2022-09-03T02:15:13.138Z,33.54
2022-09-03T02:16:23.063Z,33.47
2022-09-03T02:21:31.734Z,33.12
2022-09-03T02:23:03.338Z,33.05
2022-09-03T02:24:35.590Z,32.96
2022-09-03T02:25:57.682Z,32.88
2022-09-03T02:27:10.343Z,32.81
2022-09-03T02:28:41.228Z,32.78
2022-09-03T02:30:23.286Z,32.70
2022-09-03T02:31:43.865Z,32.62
2022-09-03T02:32:50.913Z,32.57
2022-09-03T02:33:59.061Z,32.53
2022-09-03T02:35:07.893Z,32.49
2022-09-03T02:36:17.771Z,32.46
2022-09-03T02:37:31.304Z,32.39
2022-09-03T02:38:39.832Z,32.34
2022-09-03T02:39:54.031Z,32.30
2022-09-03T02:41:02.187Z,32.25
2022-09-03T02:42:13.870Z,32.20
2022-09-03T02:43:33.321Z,32.16
2022-09-03T02:44:51.727Z,32.12
2022-09-03T02:46:02.891Z,32.07
2022-09-03T02:47:10.600Z,32.05
2022-09-03T02:48:22.112Z,32.02
2022-09-03T02:49:30.225Z,31.99
2022-09-03T02:50:50.498Z,31.95
2022-09-03T02:52:07.517Z,31.91
2022-09-03T02:53:14.342Z,31.87
2022-09-03T02:54:21.175Z,31.84
2022-09-03T02:55:29.801Z,31.81
2022-09-03T02:56:36.701Z,31.78
2022-09-03T02:57:43.518Z,31.76
2022-09-03T02:58:49.946Z,31.73
2022-09-03T02:59:56.773Z,31.70
2022-09-03T03:01:04.087Z,31.68
2022-09-03T03:02:11.238Z,31.66
2022-09-03T03:03:18.209Z,31.63
2022-09-03T03:04:25.004Z,31.60
2022-09-03T03:05:52.666Z,31.57
2022-09-03T03:07:05.806Z,31.51
2022-09-03T03:08:16.184Z,31.47
2022-09-03T03:09:26.361Z,31.44
2022-09-03T03:10:48.464Z,31.40
2022-09-03T03:11:59.206Z,31.36
2022-09-03T03:13:05.127Z,31.34
2022-09-03T03:14:13.138Z,31.29
2022-09-03T03:15:20.372Z,31.25
2022-09-03T03:16:29.134Z,31.22
2022-09-03T03:17:37.296Z,31.20
2022-09-03T03:18:47.388Z,31.18
2022-09-03T03:19:55.867Z,31.16
2022-09-03T03:21:06.574Z,31.14
2022-09-03T03:22:13.727Z,31.09
2022-09-03T03:23:20.921Z,31.05
2022-09-03T03:24:28.474Z,31.02
2022-09-03T03:25:36.906Z,30.99
2022-09-03T03:26:45.595Z,30.96
2022-09-03T03:27:58.597Z,30.93
2022-09-03T03:29:08.981Z,30.89
2022-09-03T03:30:16.444Z,30.87
2022-09-03T03:31:23.611Z,30.84
2022-09-03T03:32:31.823Z,30.82
2022-09-03T03:33:38.971Z,30.81
2022-09-03T03:34:45.898Z,30.78
2022-09-03T03:35:55.211Z,30.76
2022-09-03T03:37:02.432Z,30.73
2022-09-03T03:38:13.387Z,30.67
2022-09-03T03:39:21.624Z,30.63
2022-09-03T03:40:36.654Z,30.59
2022-09-03T03:41:49.065Z,30.57
2022-09-03T03:43:01.342Z,30.56
2022-09-03T03:44:09.420Z,30.56
2022-09-03T03:45:18.741Z,30.54
2022-09-03T03:46:25.445Z,30.51
2022-09-03T03:47:32.488Z,30.48
2022-09-03T03:48:38.992Z,30.46
2022-09-03T03:49:45.794Z,30.45
2022-09-03T03:50:53.740Z,30.43
2022-09-03T03:52:03.811Z,30.42
2022-09-03T03:53:10.190Z,30.41
2022-09-03T03:54:17.502Z,30.40
2022-09-03T03:55:27.013Z,30.40
2022-09-03T03:56:37.600Z,30.39
2022-09-03T03:57:43.634Z,30.38
2022-09-03T03:58:57.082Z,30.37
2022-09-03T04:00:07.608Z,30.36
2022-09-03T04:01:25.646Z,30.34
2022-09-03T04:02:35.055Z,30.34
2022-09-03T04:03:43.919Z,30.32
2022-09-03T04:04:51.039Z,30.31
2022-09-03T04:06:00.015Z,30.30
2022-09-03T04:07:06.055Z,30.27
2022-09-03T04:08:15.078Z,30.24
2022-09-03T04:09:21.301Z,30.22
2022-09-03T04:10:27.954Z,30.20
2022-09-03T04:11:34.735Z,30.18
2022-09-03T04:12:42.340Z,30.17
2022-09-03T04:13:48.544Z,30.15
2022-09-03T04:14:56.150Z,30.14
2022-09-03T04:16:19.308Z,30.13
2022-09-03T04:17:26.540Z,30.11
2022-09-03T04:18:34.563Z,30.09
2022-09-03T04:19:44.380Z,30.07
2022-09-03T04:20:58.275Z,30.05
2022-09-03T04:22:07.275Z,30.03
2022-09-03T04:23:15.672Z,30.02
2022-09-03T04:24:22.531Z,30.01
2022-09-03T04:25:32.987Z,29.99
2022-09-03T04:26:49.328Z,29.97
2022-09-03T04:27:57.938Z,29.94
2022-09-03T04:29:13.206Z,29.93
2022-09-03T04:30:39.425Z,29.92
2022-09-03T04:32:06.407Z,29.89
2022-09-03T04:33:16.176Z,29.86
2022-09-03T04:34:23.328Z,29.84
2022-09-03T04:35:32.828Z,29.83
2022-09-03T04:36:39.919Z,29.81
2022-09-03T04:37:47.176Z,29.79
2022-09-03T04:38:57.835Z,29.79
2022-09-03T04:40:05.360Z,29.76
2022-09-03T04:41:13.938Z,29.74
2022-09-03T04:42:47.263Z,29.72
2022-09-03T04:43:55.462Z,29.70
2022-09-03T04:45:02.473Z,29.70
2022-09-03T04:46:16.140Z,29.70
2022-09-03T04:47:29.176Z,29.69
2022-09-03T04:48:37.869Z,29.67
2022-09-03T04:49:45.565Z,29.65
2022-09-03T04:50:51.780Z,29.63
2022-09-03T04:51:59.371Z,29.60
2022-09-03T04:53:11.617Z,29.59
2022-09-03T04:54:20.889Z,29.58
2022-09-03T04:55:31.642Z,29.56
2022-09-03T04:56:41.196Z,29.55
2022-09-03T04:57:48.855Z,29.51
2022-09-03T04:59:07.759Z,29.48
2022-09-03T05:00:19.223Z,29.43
2022-09-03T05:01:28.221Z,29.39
2022-09-03T05:02:37.175Z,29.34
2022-09-03T05:03:51.962Z,29.30
2022-09-03T05:05:02.690Z,29.25
2022-09-03T05:06:12.948Z,29.20
2022-09-03T05:07:22.066Z,29.16
2022-09-03T05:08:35.668Z,29.11
2022-09-03T05:09:44.920Z,29.07
2022-09-03T05:10:52.333Z,29.03
2022-09-03T05:12:02.353Z,28.98
2022-09-03T05:13:09.344Z,28.93
2022-09-03T05:14:17.073Z,28.90
2022-09-03T05:15:24.265Z,28.86
2022-09-03T05:16:34.147Z,28.84
2022-09-03T05:17:41.028Z,28.81
2022-09-03T05:18:48.137Z,28.76
2022-09-03T05:19:57.041Z,28.72
2022-09-03T05:21:10.064Z,28.67
2022-09-03T05:22:22.414Z,28.63
2022-09-03T05:23:37.649Z,28.60
2022-09-03T05:24:45.177Z,28.57
2022-09-03T05:26:02.671Z,28.55
2022-09-03T05:27:08.631Z,28.52
2022-09-03T05:28:14.873Z,28.49
2022-09-03T05:29:22.757Z,28.46
2022-09-03T05:30:31.278Z,28.43
2022-09-03T05:31:40.628Z,28.40
2022-09-03T05:32:53.150Z,28.37
2022-09-03T05:34:00.824Z,28.35
2022-09-03T05:35:11.722Z,28.32
2022-09-03T05:36:20.614Z,28.29
2022-09-03T05:37:28.666Z,28.28
2022-09-03T05:38:36.236Z,28.26
2022-09-03T05:39:44.536Z,28.24
2022-09-03T05:40:50.889Z,28.21
2022-09-03T05:41:59.103Z,28.18
2022-09-03T05:43:08.611Z,28.14
2022-09-03T05:44:16.646Z,28.11
2022-09-03T05:45:23.291Z,28.07
2022-09-03T05:46:34.834Z,28.03
2022-09-03T05:47:41.459Z,28.00
2022-09-03T05:48:50.847Z,27.97
2022-09-03T05:49:57.306Z,27.94
2022-09-03T05:51:20.063Z,27.90
2022-09-03T05:52:26.109Z,27.86
2022-09-03T05:53:34.203Z,27.84
2022-09-03T05:54:44.305Z,27.82
2022-09-03T05:55:58.350Z,27.78
2022-09-03T05:57:06.201Z,27.74
2022-09-03T05:58:14.617Z,27.72
2022-09-03T05:59:23.064Z,27.70
2022-09-03T06:00:30.925Z,27.68
2022-09-03T06:01:39.669Z,27.67
2022-09-03T06:02:51.595Z,27.68
2022-09-03T06:03:59.902Z,27.71
2022-09-03T06:05:07.422Z,27.73
2022-09-03T06:06:17.487Z,27.75
2022-09-03T06:07:23.759Z,27.78
2022-09-03T06:08:31.254Z,27.83
2022-09-03T06:09:38.364Z,27.87
2022-09-03T06:10:45.547Z,27.92
2022-09-03T06:11:52.872Z,27.98
2022-09-03T06:13:05.216Z,28.04
2022-09-03T06:14:15.133Z,28.07
2022-09-03T06:15:25.140Z,28.09
2022-09-03T06:16:34.116Z,28.11
2022-09-03T06:17:43.596Z,28.12
2022-09-03T06:18:52.542Z,28.13
2022-09-03T06:19:59.255Z,28.15
2022-09-03T06:21:08.604Z,28.16
2022-09-03T06:22:16.458Z,28.17
2022-09-03T06:23:29.499Z,28.17
2022-09-03T06:24:38.806Z,28.17
2022-09-03T06:25:46.657Z,28.17
2022-09-03T06:26:54.213Z,28.18
2022-09-03T06:28:03.144Z,28.18
2022-09-03T06:29:12.599Z,28.18
2022-09-03T06:30:19.086Z,28.18
2022-09-03T06:31:25.397Z,28.17
2022-09-03T06:32:32.435Z,28.17
2022-09-03T06:33:42.409Z,28.16
2022-09-03T06:34:49.580Z,28.15
2022-09-03T06:36:01.803Z,28.14
2022-09-03T06:37:12.517Z,28.13
2022-09-03T06:38:22.184Z,28.13
2022-09-03T06:39:32.214Z,28.13
2022-09-03T06:40:39.438Z,28.12
2022-09-03T06:41:53.189Z,28.12
2022-09-03T06:43:08.490Z,28.12
2022-09-03T06:44:16.369Z,28.12
2022-09-03T06:45:25.424Z,28.10
2022-09-03T06:46:35.576Z,28.09
2022-09-03T06:47:44.210Z,28.06
2022-09-03T06:48:51.658Z,28.02
2022-09-03T06:49:59.570Z,27.99
2022-09-03T06:51:15.512Z,27.96
2022-09-03T06:52:23.175Z,27.93
2022-09-03T06:53:34.652Z,27.92
2022-09-03T06:54:41.331Z,27.90
2022-09-03T06:55:55.513Z,27.89
2022-09-03T06:57:04.292Z,27.87
2022-09-03T06:58:11.370Z,27.86
2022-09-03T06:59:17.918Z,27.84
2022-09-03T07:00:24.319Z,27.84
2022-09-03T07:01:31.795Z,27.83
2022-09-03T07:02:39.723Z,27.84
2022-09-03T07:03:49.936Z,27.84
2022-09-03T07:04:55.794Z,27.85
2022-09-03T07:06:05.772Z,27.85
2022-09-03T07:07:15.063Z,27.85
2022-09-03T07:08:22.849Z,27.84
2022-09-03T07:09:29.106Z,27.83
2022-09-03T07:10:38.186Z,27.83
2022-09-03T07:11:48.889Z,27.82
2022-09-03T07:12:56.669Z,27.83
2022-09-03T07:14:04.952Z,27.83
2022-09-03T07:15:11.189Z,27.84
2022-09-03T07:16:24.496Z,27.84
2022-09-03T07:17:33.172Z,27.84
2022-09-03T07:18:40.510Z,27.83
2022-09-03T07:19:48.023Z,27.81
2022-09-03T07:21:00.162Z,27.80
2022-09-03T07:22:06.208Z,27.79
2022-09-03T07:23:12.950Z,27.78
2022-09-03T07:24:20.390Z,27.76
2022-09-03T07:25:28.593Z,27.76
2022-09-03T07:26:40.977Z,27.75
2022-09-03T07:27:48.382Z,27.74
2022-09-03T07:28:56.010Z,27.74
2022-09-03T07:30:03.745Z,27.74
2022-09-03T07:31:13.537Z,27.74
2022-09-03T07:32:20.741Z,27.74
2022-09-03T07:33:33.876Z,27.74
2022-09-03T07:34:40.762Z,27.74
2022-09-03T07:35:48.894Z,27.74
2022-09-03T07:36:55.511Z,27.75
2022-09-03T07:38:03.858Z,27.74
2022-09-03T07:39:13.939Z,27.72
2022-09-03T07:40:20.759Z,27.68
2022-09-03T07:41:29.024Z,27.64
2022-09-03T07:42:37.951Z,27.61
2022-09-03T07:43:50.525Z,27.58
2022-09-03T07:44:58.078Z,27.56
2022-09-03T07:46:04.566Z,27.53
2022-09-03T07:47:11.431Z,27.51
2022-09-03T07:48:18.855Z,27.50
2022-09-03T07:49:25.671Z,27.49
2022-09-03T07:50:38.822Z,27.48
2022-09-03T07:51:51.074Z,27.46
2022-09-03T07:53:03.660Z,27.44
2022-09-03T07:54:11.819Z,27.42
2022-09-03T07:55:22.352Z,27.42
2022-09-03T07:56:33.562Z,27.43
2022-09-03T07:57:40.624Z,27.43
2022-09-03T07:58:49.193Z,27.42
2022-09-03T07:59:55.194Z,27.43
2022-09-03T08:01:11.283Z,27.44
2022-09-03T08:02:19.441Z,27.44
2022-09-03T08:03:25.673Z,27.44
2022-09-03T08:04:34.734Z,27.45
2022-09-03T08:05:43.246Z,27.46
2022-09-03T08:06:56.079Z,27.47
2022-09-03T08:08:06.000Z,27.47
2022-09-03T08:09:14.200Z,27.47
2022-09-03T08:10:20.017Z,27.48
2022-09-03T08:11:26.734Z,27.48
2022-09-03T08:12:33.526Z,27.49
2022-09-03T08:13:46.764Z,27.49
2022-09-03T08:14:52.873Z,27.49
2022-09-03T08:16:01.143Z,27.49
2022-09-03T08:17:08.130Z,27.49
2022-09-03T08:18:14.134Z,27.48
2022-09-03T08:19:21.156Z,27.47
2022-09-03T08:20:29.478Z,27.45
2022-09-03T08:21:39.775Z,27.44
2022-09-03T08:22:47.012Z,27.42
2022-09-03T08:23:55.897Z,27.38
2022-09-03T08:25:02.792Z,27.33
2022-09-03T08:26:10.002Z,27.27
2022-09-03T08:27:17.158Z,27.22
2022-09-03T08:28:24.228Z,27.17
2022-09-03T08:29:31.209Z,27.13
2022-09-03T08:30:37.785Z,27.07
2022-09-03T08:31:45.350Z,27.02
2022-09-03T08:32:51.451Z,26.99
2022-09-03T08:34:05.986Z,26.94
2022-09-03T08:35:13.922Z,26.88
2022-09-03T08:36:23.069Z,26.83
2022-09-03T08:37:30.209Z,26.79
2022-09-03T08:38:37.609Z,26.76
2022-09-03T08:39:47.964Z,26.73
2022-09-03T08:40:56.723Z,26.71
2022-09-03T08:42:27.978Z,26.68
2022-09-03T08:43:52.756Z,26.64
2022-09-03T08:45:01.588Z,26.61
2022-09-03T08:46:08.490Z,26.59
2022-09-03T08:47:51.369Z,26.58
2022-09-03T08:48:59.904Z,26.55
2022-09-03T08:50:30.537Z,26.53
2022-09-03T08:51:41.861Z,26.50
2022-09-03T08:53:27.386Z,26.48
2022-09-03T08:54:37.366Z,26.46
2022-09-03T08:56:04.820Z,26.46
2022-09-03T08:57:11.138Z,26.46
2022-09-03T08:58:27.119Z,26.45
2022-09-03T08:59:33.870Z,26.44
2022-09-03T09:00:48.985Z,26.44
2022-09-03T09:02:28.716Z,26.44
2022-09-03T09:04:12.657Z,26.44
2022-09-03T09:05:44.977Z,26.46
2022-09-03T09:06:57.274Z,26.49
2022-09-03T09:08:49.456Z,26.53
2022-09-03T09:09:59.195Z,26.56
2022-09-03T09:11:32.674Z,26.58
2022-09-03T09:13:00.503Z,26.62
2022-09-03T09:14:22.315Z,26.65
2022-09-03T09:15:31.025Z,26.66
2022-09-03T09:16:44.806Z,26.66
2022-09-03T09:18:27.465Z,26.67
2022-09-03T09:20:23.165Z,26.68
2022-09-03T09:21:33.749Z,26.67
2022-09-03T09:22:47.393Z,26.66
2022-09-03T09:23:59.509Z,26.63
2022-09-03T09:25:15.199Z,26.62
2022-09-03T09:26:24.071Z,26.60
2022-09-03T09:27:30.937Z,26.59
2022-09-03T09:28:38.802Z,26.59
2022-09-03T09:29:51.827Z,26.58
2022-09-03T09:31:00.087Z,26.57
2022-09-03T09:32:08.604Z,26.56
2022-09-03T09:33:18.461Z,26.54
2022-09-03T09:34:25.851Z,26.53
2022-09-03T09:35:32.075Z,26.51
2022-09-03T09:36:47.192Z,26.49
2022-09-03T09:37:58.639Z,26.47
2022-09-03T09:39:16.800Z,26.46
2022-09-03T09:40:35.184Z,26.44
2022-09-03T09:41:47.063Z,26.43
2022-09-03T09:42:59.751Z,26.42
2022-09-03T09:44:09.188Z,26.39
2022-09-03T09:45:15.958Z,26.37
2022-09-03T09:46:26.632Z,26.35
2022-09-03T09:47:35.085Z,26.33
2022-09-03T09:48:51.864Z,26.32
2022-09-03T09:49:59.923Z,26.30
2022-09-03T09:51:20.729Z,26.29
2022-09-03T09:52:30.798Z,26.27
2022-09-03T09:53:38.409Z,26.25
2022-09-03T09:54:47.252Z,26.24
2022-09-03T09:55:55.217Z,26.23
2022-09-03T09:57:06.107Z,26.21
2022-09-03T09:58:20.499Z,26.18
2022-09-03T09:59:29.260Z,26.16
2022-09-03T10:00:39.340Z,26.14
2022-09-03T10:01:46.929Z,26.13
2022-09-03T10:02:56.978Z,26.09
2022-09-03T10:04:12.983Z,26.07
2022-09-03T10:05:34.690Z,26.07
2022-09-03T10:07:00.462Z,26.06
2022-09-03T10:08:09.079Z,26.05
2022-09-03T10:09:19.836Z,26.06
2022-09-03T10:10:26.527Z,26.06
2022-09-03T10:11:33.497Z,26.06
2022-09-03T10:12:45.471Z,26.06
2022-09-03T10:13:54.288Z,26.05
2022-09-03T10:15:25.559Z,26.05
2022-09-03T10:16:37.387Z,26.03
2022-09-03T10:18:04.433Z,26.01
2022-09-03T10:19:37.563Z,25.96
2022-09-03T10:20:51.917Z,25.90
2022-09-03T10:22:06.744Z,25.86
2022-09-03T10:23:31.061Z,25.81
2022-09-03T10:24:49.802Z,25.77
2022-09-03T10:26:08.287Z,25.73
2022-09-03T10:27:14.698Z,25.69
2022-09-03T10:28:26.518Z,25.67
2022-09-03T10:29:34.726Z,25.64
2022-09-03T10:31:20.026Z,25.61
2022-09-03T10:32:48.558Z,25.57
2022-09-03T10:34:26.703Z,25.54
2022-09-03T10:35:37.598Z,25.50
2022-09-03T10:37:07.898Z,25.46
2022-09-03T10:38:24.318Z,25.42
2022-09-03T10:40:09.528Z,25.40
2022-09-03T10:41:43.366Z,25.38
2022-09-03T10:42:58.732Z,25.36
2022-09-03T10:44:41.540Z,25.34
2022-09-03T10:46:07.256Z,25.31
2022-09-03T10:47:33.448Z,25.29
2022-09-03T10:49:01.280Z,25.30
2022-09-03T10:50:39.932Z,25.30
2022-09-03T10:52:23.422Z,25.31
2022-09-03T10:53:56.948Z,25.31
2022-09-03T10:55:25.278Z,25.31
2022-09-03T10:56:53.338Z,25.32
2022-09-03T10:58:17.065Z,25.33
2022-09-03T10:59:38.198Z,25.29
2022-09-03T11:00:51.950Z,25.27
2022-09-03T11:02:11.667Z,25.26
2022-09-03T11:03:34.947Z,25.23
2022-09-03T11:04:45.639Z,25.20
2022-09-03T11:05:57.692Z,25.19
2022-09-03T11:07:10.652Z,25.17
2022-09-03T11:08:37.475Z,25.14
2022-09-03T11:10:21.288Z,25.10
2022-09-03T11:11:44.593Z,25.08
2022-09-03T11:12:59.104Z,25.06
2022-09-03T11:14:12.487Z,25.05
2022-09-03T11:15:46.166Z,25.02
2022-09-03T11:16:58.173Z,25.00
2022-09-03T11:18:18.915Z,24.99
2022-09-03T11:19:49.839Z,24.97
2022-09-03T11:20:57.811Z,24.95
2022-09-03T11:22:05.360Z,24.94
2022-09-03T11:23:12.153Z,24.92
2022-09-03T11:24:25.234Z,24.92
2022-09-03T11:25:40.440Z,24.91
2022-09-03T11:26:48.157Z,24.89
2022-09-03T11:28:12.545Z,24.89
2022-09-03T11:29:56.825Z,24.90
2022-09-03T11:31:27.603Z,24.90
2022-09-03T11:32:58.867Z,24.93
2022-09-03T11:34:31.688Z,24.95
2022-09-03T11:35:39.958Z,24.97
2022-09-03T11:36:47.988Z,24.98
2022-09-03T11:38:03.449Z,25.00
2022-09-03T11:39:35.769Z,25.02
2022-09-03T11:40:59.526Z,25.03
2022-09-03T11:42:13.052Z,25.05
2022-09-03T11:43:34.858Z,25.06
2022-09-03T11:44:51.265Z,25.09
2022-09-03T11:46:24.505Z,25.12
2022-09-03T11:47:45.146Z,25.15
2022-09-03T11:49:48.898Z,25.16
2022-09-03T11:50:56.504Z,25.15
2022-09-03T11:52:11.283Z,25.16
2022-09-03T11:53:17.927Z,25.17
2022-09-03T11:54:27.526Z,25.17
2022-09-03T11:55:56.603Z,25.16
2022-09-03T11:57:18.505Z,25.15
2022-09-03T11:58:35.535Z,25.13
2022-09-03T11:59:45.972Z,25.10
2022-09-03T12:00:54.581Z,25.09
2022-09-03T12:02:14.172Z,25.09
2022-09-03T12:03:23.441Z,25.10
2022-09-03T12:05:21.771Z,25.10
2022-09-03T12:06:30.223Z,25.10
2022-09-03T12:07:48.012Z,25.11
2022-09-03T12:09:03.257Z,25.13
2022-09-03T12:10:10.028Z,25.14
2022-09-03T12:11:39.508Z,25.12
2022-09-03T12:13:10.628Z,25.12
2022-09-03T12:14:24.457Z,25.11
2022-09-03T12:15:58.863Z,25.11
2022-09-03T12:17:44.359Z,25.12
2022-09-03T12:18:54.069Z,25.14
2022-09-03T12:20:02.303Z,25.16
2022-09-03T12:21:10.133Z,25.17
2022-09-03T12:22:18.772Z,25.18
2022-09-03T12:23:58.018Z,25.20
2022-09-03T12:25:20.915Z,25.21
2022-09-03T12:26:29.617Z,25.20
2022-09-03T12:27:35.864Z,25.21
2022-09-03T12:28:44.573Z,25.22
2022-09-03T12:30:01.533Z,25.22
2022-09-03T12:31:25.415Z,25.22
2022-09-03T12:32:37.869Z,25.21
2022-09-03T12:33:45.981Z,25.20
2022-09-03T12:34:53.661Z,25.22
2022-09-03T12:36:01.241Z,25.25
2022-09-03T12:38:04.544Z,25.28
2022-09-03T12:39:10.843Z,25.30
2022-09-03T12:40:22.627Z,25.33
2022-09-03T12:41:32.587Z,25.35
2022-09-03T12:42:39.541Z,25.37
2022-09-03T12:44:01.500Z,25.38
2022-09-03T12:45:13.671Z,25.38
2022-09-03T12:46:22.252Z,25.38
2022-09-03T12:47:41.823Z,25.37
2022-09-03T12:50:41.584Z,25.31
2022-09-03T12:51:54.325Z,25.28
2022-09-03T12:53:04.014Z,25.26
2022-09-03T12:54:16.340Z,25.26
2022-09-03T12:55:30.101Z,25.25
2022-09-03T12:56:36.438Z,25.23
2022-09-03T12:57:46.758Z,25.22
2022-09-03T12:58:56.711Z,25.22
2022-09-03T13:00:05.009Z,25.22
2022-09-03T13:01:14.054Z,25.23
2022-09-03T13:02:32.719Z,25.24
2022-09-03T13:03:59.790Z,25.27
2022-09-03T13:05:10.059Z,25.31
2022-09-03T13:06:16.926Z,25.34
2022-09-03T13:07:24.781Z,25.37
2022-09-03T13:08:49.768Z,25.40
2022-09-03T13:09:59.445Z,25.44
2022-09-03T13:11:05.831Z,25.48
2022-09-03T13:12:36.008Z,25.52
2022-09-03T13:13:50.040Z,25.54
2022-09-03T13:14:58.860Z,25.54
2022-09-03T13:16:10.509Z,25.55
2022-09-03T13:17:33.710Z,25.55
2022-09-03T13:19:22.296Z,25.53
2022-09-03T13:20:57.524Z,25.50
2022-09-03T13:22:18.417Z,25.46
2022-09-03T13:23:56.513Z,25.43
2022-09-03T13:25:39.063Z,25.41
2022-09-03T13:26:50.727Z,25.39
2022-09-03T13:28:34.064Z,25.39
2022-09-03T13:30:04.399Z,25.37
2022-09-03T13:31:27.800Z,25.37
2022-09-03T13:32:43.908Z,25.38
2022-09-03T13:34:26.201Z,25.38
2022-09-03T13:35:35.883Z,25.38
2022-09-03T13:37:01.857Z,25.39
2022-09-03T13:38:43.927Z,25.41
2022-09-03T13:39:57.687Z,25.46
2022-09-03T13:41:34.665Z,25.51
2022-09-03T13:43:25.984Z,25.56
2022-09-03T13:44:48.622Z,25.62
2022-09-03T13:46:05.368Z,25.68
2022-09-03T13:47:23.839Z,25.74
2022-09-03T13:48:53.428Z,25.79
2022-09-03T13:50:27.926Z,25.84
2022-09-03T13:52:03.315Z,25.88
2022-09-03T13:53:12.707Z,25.92
2022-09-03T13:54:48.209Z,25.98
2022-09-03T13:55:58.300Z,26.03
2022-09-03T13:57:24.220Z,26.09
2022-09-03T13:59:02.326Z,26.20
2022-09-03T14:00:12.886Z,26.42
2022-09-03T14:01:56.096Z,26.66
2022-09-03T14:03:25.557Z,26.98
2022-09-03T14:04:42.779Z,27.27
2022-09-03T14:06:11.154Z,27.53
2022-09-03T14:07:50.000Z,27.75
2022-09-03T14:09:15.160Z,27.95
2022-09-03T14:11:13.603Z,28.19
2022-09-03T14:12:53.527Z,28.48
2022-09-03T14:14:23.398Z,28.69
2022-09-03T14:16:03.045Z,28.86
2022-09-03T14:17:43.756Z,29.07
2022-09-03T14:19:20.532Z,29.34
2022-09-03T14:20:31.083Z,29.64
2022-09-03T14:22:04.817Z,29.85
2022-09-03T14:23:45.495Z,30.04
2022-09-03T14:25:02.037Z,30.16
2022-09-03T14:26:08.597Z,30.20
2022-09-03T14:27:14.959Z,30.24
2022-09-03T14:28:30.487Z,30.25
2022-09-03T14:29:37.946Z,30.23
2022-09-03T14:31:06.964Z,30.21
2022-09-03T14:32:30.989Z,30.22
2022-09-03T14:33:52.102Z,30.31
2022-09-03T14:35:33.203Z,30.46
2022-09-03T14:36:52.216Z,30.62
2022-09-03T14:38:32.882Z,30.79
2022-09-03T14:39:57.837Z,31.03
2022-09-03T14:41:18.453Z,31.19
2022-09-03T14:42:54.209Z,31.25
2022-09-03T14:44:29.964Z,31.31
2022-09-03T14:45:48.365Z,31.47
2022-09-03T14:47:14.308Z,31.61
2022-09-03T14:48:50.350Z,31.75
2022-09-03T14:50:05.065Z,31.88
2022-09-03T14:51:33.406Z,32.00
2022-09-03T14:53:08.048Z,32.17
2022-09-03T14:54:42.811Z,32.42
2022-09-03T14:56:05.084Z,32.62
2022-09-03T14:57:46.842Z,32.78
2022-09-03T14:59:36.024Z,32.98
2022-09-03T15:01:24.756Z,33.17
2022-09-03T15:02:42.238Z,33.37
2022-09-03T15:04:12.939Z,33.50
2022-09-03T15:05:56.412Z,33.55
2022-09-03T15:07:26.162Z,33.49
2022-09-03T15:09:09.142Z,33.49
2022-09-03T15:10:37.091Z,33.48
2022-09-03T15:11:53.290Z,33.53
2022-09-03T15:13:33.093Z,33.62
2022-09-03T15:14:57.450Z,33.86
2022-09-03T15:16:40.785Z,34.12
2022-09-03T15:18:20.678Z,34.34
2022-09-03T15:19:42.318Z,34.49
2022-09-03T15:20:55.939Z,34.66
2022-09-03T15:22:14.710Z,34.84
2022-09-03T15:23:42.213Z,35.01
2022-09-03T15:25:21.490Z,35.12
2022-09-03T15:27:03.468Z,35.32
2022-09-03T15:28:31.057Z,35.56
2022-09-03T15:29:54.600Z,35.82
2022-09-03T15:31:24.652Z,36.04
2022-09-03T15:32:34.244Z,36.35
2022-09-03T15:33:53.509Z,36.57
2022-09-03T15:35:12.454Z,36.71
2022-09-03T15:36:41.896Z,36.82
2022-09-03T15:38:00.783Z,36.94
2022-09-03T15:39:16.895Z,37.17
2022-09-03T15:40:29.999Z,37.40
2022-09-03T15:41:52.618Z,37.53
2022-09-03T15:43:32.756Z,37.70
2022-09-03T15:44:50.983Z,37.79
2022-09-03T15:46:12.552Z,37.79
2022-09-03T15:47:53.736Z,37.88
2022-09-03T15:49:39.735Z,37.93
2022-09-03T15:51:11.835Z,38.03
2022-09-03T15:52:43.450Z,38.09
2022-09-03T15:53:50.877Z,38.05
2022-09-03T15:55:04.611Z,38.09
2022-09-03T15:56:51.403Z,38.24
2022-09-03T15:58:21.628Z,38.42
2022-09-03T15:59:28.917Z,38.62
2022-09-03T16:00:34.692Z,38.79
2022-09-03T16:02:05.726Z,38.86
2022-09-03T16:03:24.083Z,39.04
2022-09-03T16:05:08.212Z,39.27
2022-09-03T16:07:01.380Z,39.34
2022-09-03T16:08:41.297Z,39.44
2022-09-03T16:10:26.221Z,39.61
2022-09-03T16:11:37.263Z,39.65
2022-09-03T16:13:23.512Z,39.70
2022-09-03T16:14:33.397Z,39.73
2022-09-03T16:15:53.912Z,39.85
2022-09-03T16:17:48.743Z,39.91
2022-09-03T16:19:07.680Z,39.81
2022-09-03T16:20:23.674Z,39.82
2022-09-03T16:21:33.948Z,39.85
2022-09-03T16:22:46.911Z,39.90
2022-09-03T16:23:54.447Z,39.88
2022-09-03T16:25:09.095Z,40.08
2022-09-03T16:26:16.377Z,40.35
2022-09-03T16:27:54.044Z,40.49
2022-09-03T16:29:18.161Z,40.67
2022-09-03T16:30:44.158Z,40.81
2022-09-03T16:32:10.136Z,40.96
2022-09-03T16:33:40.054Z,41.20
2022-09-03T16:35:05.653Z,41.47
2022-09-03T16:36:25.376Z,41.53
2022-09-03T16:37:51.649Z,41.50
2022-09-03T16:39:49.102Z,41.69
2022-09-03T16:41:02.427Z,41.76
2022-09-03T16:42:42.608Z,41.68
2022-09-03T16:44:23.140Z,41.45
2022-09-03T16:45:53.705Z,41.40
2022-09-03T16:47:24.539Z,41.56
2022-09-03T16:48:56.968Z,41.48
2022-09-03T16:50:30.684Z,41.37
2022-09-03T16:52:15.704Z,41.56
2022-09-03T16:53:56.837Z,41.61
2022-09-03T16:55:36.146Z,41.71
2022-09-03T16:57:17.807Z,41.85
2022-09-03T16:58:45.612Z,41.99
2022-09-03T17:00:08.301Z,42.11
2022-09-03T17:01:25.767Z,42.16
2022-09-03T17:02:49.647Z,42.27